sensor_id;sensor_type;location;lat;lon;timestamp;P1;durP1;ratioP1;P2;durP2;ratioP2
8683;SDS011;4379;59.744;18.206;2022-10-16T00:01:22;33.25;;;25.65;;
8683;SDS011;4379;59.744;18.206;2022-10-16T00:03:51;32.83;;;27.13;;
8683;SDS011;4379;59.744;18.206;2022-10-16T00:06:20;33.05;;;27.08;;
8683;SDS011;4379;59.744;18.206;2022-10-16T00:08:48;32.88;;;27.20;;
8683;SDS011;4379;59.744;18.206;2022-10-16T00:11:21;32.22;;;26.20;;
8683;SDS011;4379;59.744;18.206;2022-10-16T00:13:50;31.13;;;27.20;;
8683;SDS011;4379;59.744;18.206;2022-10-16T00:16:21;30.05;;;26.38;;
8683;SDS011;4379;59.744;18.206;2022-10-16T00:18:48;32.92;;;25.92;;
8683;SDS011;4379;59.744;18.206;2022-10-16T00:21:17;33.08;;;27.27;;
8683;SDS011;4379;59.744;18.206;2022-10-16T00:23:53;30.95;;;25.40;;
8683;SDS011;4379;59.744;18.206;2022-10-16T00:26:21;29.92;;;24.63;;
8683;SDS011;4379;59.744;18.206;2022-10-16T00:28:49;26.08;;;23.30;;
8683;SDS011;4379;59.744;18.206;2022-10-16T00:31:18;26.35;;;23.45;;
8683;SDS011;4379;59.744;18.206;2022-10-16T00:33:49;27.77;;;24.75;;
8683;SDS011;4379;59.744;18.206;2022-10-16T00:36:18;27.17;;;24.02;;
8683;SDS011;4379;59.744;18.206;2022-10-16T00:38:49;30.48;;;24.65;;
8683;SDS011;4379;59.744;18.206;2022-10-16T00:41:22;27.60;;;23.85;;
8683;SDS011;4379;59.744;18.206;2022-10-16T00:49:00;24.15;;;21.40;;
8683;SDS011;4379;59.744;18.206;2022-10-16T00:51:34;22.95;;;20.50;;
8683;SDS011;4379;59.744;18.206;2022-10-16T00:54:22;22.90;;;20.33;;
8683;SDS011;4379;59.744;18.206;2022-10-16T00:56:54;23.67;;;21.27;;
8683;SDS011;4379;59.744;18.206;2022-10-16T00:59:24;22.25;;;19.95;;
8683;SDS011;4379;59.744;18.206;2022-10-16T01:01:57;22.67;;;19.92;;
8683;SDS011;4379;59.744;18.206;2022-10-16T01:04:26;23.73;;;20.67;;
8683;SDS011;4379;59.744;18.206;2022-10-16T01:07:20;23.58;;;21.08;;
8683;SDS011;4379;59.744;18.206;2022-10-16T01:12:23;21.08;;;18.35;;
8683;SDS011;4379;59.744;18.206;2022-10-16T01:21:10;20.65;;;18.75;;
8683;SDS011;4379;59.744;18.206;2022-10-16T01:23:51;21.40;;;19.08;;
8683;SDS011;4379;59.744;18.206;2022-10-16T01:26:44;19.77;;;17.88;;
8683;SDS011;4379;59.744;18.206;2022-10-16T01:29:34;18.58;;;16.70;;
8683;SDS011;4379;59.744;18.206;2022-10-16T01:32:22;17.63;;;15.98;;
8683;SDS011;4379;59.744;18.206;2022-10-16T01:34:59;18.35;;;16.55;;
8683;SDS011;4379;59.744;18.206;2022-10-16T01:37:33;17.83;;;16.02;;
8683;SDS011;4379;59.744;18.206;2022-10-16T01:40:05;18.20;;;15.07;;
8683;SDS011;4379;59.744;18.206;2022-10-16T01:42:39;17.52;;;15.90;;
8683;SDS011;4379;59.744;18.206;2022-10-16T01:45:11;16.08;;;14.68;;
8683;SDS011;4379;59.744;18.206;2022-10-16T01:47:41;16.63;;;15.07;;
8683;SDS011;4379;59.744;18.206;2022-10-16T01:50:10;17.38;;;15.77;;
8683;SDS011;4379;59.744;18.206;2022-10-16T01:52:42;16.55;;;14.98;;
8683;SDS011;4379;59.744;18.206;2022-10-16T01:55:16;16.85;;;15.27;;
8683;SDS011;4379;59.744;18.206;2022-10-16T01:57:49;15.20;;;13.82;;
8683;SDS011;4379;59.744;18.206;2022-10-16T02:00:19;14.63;;;13.43;;
8683;SDS011;4379;59.744;18.206;2022-10-16T02:02:48;15.15;;;13.85;;
8683;SDS011;4379;59.744;18.206;2022-10-16T02:05:25;15.55;;;14.00;;
8683;SDS011;4379;59.744;18.206;2022-10-16T02:07:57;15.10;;;13.57;;
8683;SDS011;4379;59.744;18.206;2022-10-16T02:10:30;15.05;;;13.82;;
8683;SDS011;4379;59.744;18.206;2022-10-16T02:15:40;13.93;;;12.68;;
8683;SDS011;4379;59.744;18.206;2022-10-16T02:18:07;14.40;;;13.20;;
8683;SDS011;4379;59.744;18.206;2022-10-16T02:20:39;13.43;;;12.45;;
8683;SDS011;4379;59.744;18.206;2022-10-16T02:23:23;13.38;;;12.18;;
8683;SDS011;4379;59.744;18.206;2022-10-16T02:25:58;13.30;;;12.18;;
8683;SDS011;4379;59.744;18.206;2022-10-16T02:28:33;12.65;;;11.65;;
8683;SDS011;4379;59.744;18.206;2022-10-16T02:31:15;13.48;;;12.30;;
8683;SDS011;4379;59.744;18.206;2022-10-16T02:33:48;13.90;;;12.85;;
8683;SDS011;4379;59.744;18.206;2022-10-16T02:36:18;13.98;;;12.98;;
8683;SDS011;4379;59.744;18.206;2022-10-16T02:38:46;15.18;;;13.80;;
8683;SDS011;4379;59.744;18.206;2022-10-16T02:41:13;14.57;;;13.25;;
8683;SDS011;4379;59.744;18.206;2022-10-16T02:43:41;13.77;;;12.60;;
8683;SDS011;4379;59.744;18.206;2022-10-16T02:46:08;15.57;;;14.23;;
8683;SDS011;4379;59.744;18.206;2022-10-16T02:48:35;16.10;;;14.50;;
8683;SDS011;4379;59.744;18.206;2022-10-16T02:51:03;16.35;;;14.75;;
8683;SDS011;4379;59.744;18.206;2022-10-16T02:53:30;15.18;;;13.85;;
8683;SDS011;4379;59.744;18.206;2022-10-16T02:55:57;14.68;;;13.32;;
8683;SDS011;4379;59.744;18.206;2022-10-16T02:58:24;14.32;;;12.95;;
8683;SDS011;4379;59.744;18.206;2022-10-16T03:00:52;14.48;;;13.38;;
8683;SDS011;4379;59.744;18.206;2022-10-16T03:03:19;14.55;;;13.40;;
8683;SDS011;4379;59.744;18.206;2022-10-16T03:05:46;13.75;;;12.55;;
8683;SDS011;4379;59.744;18.206;2022-10-16T03:08:13;13.00;;;11.95;;
8683;SDS011;4379;59.744;18.206;2022-10-16T03:10:41;13.48;;;12.48;;
8683;SDS011;4379;59.744;18.206;2022-10-16T03:13:08;13.32;;;12.38;;
8683;SDS011;4379;59.744;18.206;2022-10-16T03:15:35;13.48;;;12.48;;
8683;SDS011;4379;59.744;18.206;2022-10-16T03:18:02;13.00;;;11.90;;
8683;SDS011;4379;59.744;18.206;2022-10-16T03:20:29;11.40;;;10.65;;
8683;SDS011;4379;59.744;18.206;2022-10-16T03:22:57;13.00;;;11.93;;
8683;SDS011;4379;59.744;18.206;2022-10-16T03:25:24;12.43;;;11.52;;
8683;SDS011;4379;59.744;18.206;2022-10-16T03:27:51;12.35;;;11.40;;
8683;SDS011;4379;59.744;18.206;2022-10-16T03:30:18;11.85;;;10.95;;
8683;SDS011;4379;59.744;18.206;2022-10-16T03:32:46;12.75;;;11.80;;
8683;SDS011;4379;59.744;18.206;2022-10-16T03:35:13;12.00;;;11.02;;
8683;SDS011;4379;59.744;18.206;2022-10-16T03:37:40;11.27;;;10.38;;
8683;SDS011;4379;59.744;18.206;2022-10-16T03:40:07;11.60;;;10.75;;
8683;SDS011;4379;59.744;18.206;2022-10-16T03:42:35;12.00;;;11.20;;
8683;SDS011;4379;59.744;18.206;2022-10-16T03:45:02;12.20;;;11.20;;
8683;SDS011;4379;59.744;18.206;2022-10-16T03:47:30;12.18;;;11.18;;
8683;SDS011;4379;59.744;18.206;2022-10-16T03:49:59;11.40;;;10.50;;
8683;SDS011;4379;59.744;18.206;2022-10-16T03:52:27;10.55;;;9.80;;
8683;SDS011;4379;59.744;18.206;2022-10-16T03:54:54;10.45;;;9.60;;
8683;SDS011;4379;59.744;18.206;2022-10-16T03:57:22;10.27;;;9.68;;
8683;SDS011;4379;59.744;18.206;2022-10-16T03:59:50;10.18;;;9.52;;
8683;SDS011;4379;59.744;18.206;2022-10-16T04:02:17;10.85;;;9.65;;
8683;SDS011;4379;59.744;18.206;2022-10-16T04:04:44;10.60;;;9.75;;
8683;SDS011;4379;59.744;18.206;2022-10-16T04:07:11;11.48;;;10.65;;
8683;SDS011;4379;59.744;18.206;2022-10-16T04:09:39;11.63;;;10.48;;
8683;SDS011;4379;59.744;18.206;2022-10-16T04:12:06;12.00;;;11.07;;
8683;SDS011;4379;59.744;18.206;2022-10-16T04:14:33;10.80;;;10.10;;
8683;SDS011;4379;59.744;18.206;2022-10-16T04:17:00;11.70;;;10.68;;
8683;SDS011;4379;59.744;18.206;2022-10-16T04:19:28;12.68;;;11.55;;
8683;SDS011;4379;59.744;18.206;2022-10-16T04:21:55;12.60;;;11.43;;
8683;SDS011;4379;59.744;18.206;2022-10-16T04:24:23;12.10;;;11.20;;
8683;SDS011;4379;59.744;18.206;2022-10-16T04:26:50;13.23;;;12.10;;
8683;SDS011;4379;59.744;18.206;2022-10-16T04:29:17;12.85;;;11.77;;
8683;SDS011;4379;59.744;18.206;2022-10-16T04:31:44;13.15;;;11.98;;
8683;SDS011;4379;59.744;18.206;2022-10-16T04:34:12;12.85;;;11.73;;
8683;SDS011;4379;59.744;18.206;2022-10-16T04:36:40;11.63;;;10.82;;
8683;SDS011;4379;59.744;18.206;2022-10-16T04:39:07;12.60;;;11.57;;
8683;SDS011;4379;59.744;18.206;2022-10-16T04:41:34;13.05;;;11.93;;
8683;SDS011;4379;59.744;18.206;2022-10-16T04:44:01;11.75;;;10.82;;
8683;SDS011;4379;59.744;18.206;2022-10-16T04:46:29;11.75;;;10.85;;
8683;SDS011;4379;59.744;18.206;2022-10-16T04:48:56;11.85;;;10.82;;
8683;SDS011;4379;59.744;18.206;2022-10-16T04:51:23;11.15;;;10.35;;
8683;SDS011;4379;59.744;18.206;2022-10-16T04:53:52;11.38;;;10.57;;
8683;SDS011;4379;59.744;18.206;2022-10-16T04:56:19;11.15;;;10.45;;
8683;SDS011;4379;59.744;18.206;2022-10-16T04:58:47;12.30;;;11.10;;
8683;SDS011;4379;59.744;18.206;2022-10-16T05:01:14;11.30;;;10.40;;
8683;SDS011;4379;59.744;18.206;2022-10-16T05:03:42;10.82;;;9.93;;
8683;SDS011;4379;59.744;18.206;2022-10-16T05:06:09;11.07;;;10.27;;
8683;SDS011;4379;59.744;18.206;2022-10-16T05:08:36;11.32;;;10.52;;
8683;SDS011;4379;59.744;18.206;2022-10-16T05:11:03;10.50;;;9.68;;
8683;SDS011;4379;59.744;18.206;2022-10-16T05:13:30;10.15;;;9.43;;
8683;SDS011;4379;59.744;18.206;2022-10-16T05:15:57;10.32;;;9.50;;
8683;SDS011;4379;59.744;18.206;2022-10-16T05:18:24;9.73;;;9.13;;
8683;SDS011;4379;59.744;18.206;2022-10-16T05:20:52;9.90;;;9.20;;
8683;SDS011;4379;59.744;18.206;2022-10-16T05:23:19;8.88;;;8.27;;
8683;SDS011;4379;59.744;18.206;2022-10-16T05:25:56;9.43;;;8.70;;
8683;SDS011;4379;59.744;18.206;2022-10-16T05:28:25;9.13;;;8.60;;
8683;SDS011;4379;59.744;18.206;2022-10-16T05:30:53;9.63;;;8.93;;
8683;SDS011;4379;59.744;18.206;2022-10-16T05:33:23;9.68;;;9.07;;
8683;SDS011;4379;59.744;18.206;2022-10-16T05:35:51;9.93;;;9.13;;
8683;SDS011;4379;59.744;18.206;2022-10-16T05:38:18;9.73;;;9.13;;
8683;SDS011;4379;59.744;18.206;2022-10-16T05:40:51;8.60;;;8.20;;
8683;SDS011;4379;59.744;18.206;2022-10-16T05:43:19;9.43;;;8.73;;
8683;SDS011;4379;59.744;18.206;2022-10-16T05:45:56;9.05;;;8.48;;
8683;SDS011;4379;59.744;18.206;2022-10-16T05:48:25;8.68;;;8.07;;
8683;SDS011;4379;59.744;18.206;2022-10-16T05:50:59;9.75;;;9.05;;
8683;SDS011;4379;59.744;18.206;2022-10-16T05:53:32;8.27;;;7.72;;
8683;SDS011;4379;59.744;18.206;2022-10-16T05:56:01;8.88;;;8.27;;
8683;SDS011;4379;59.744;18.206;2022-10-16T05:58:29;8.65;;;8.10;;
8683;SDS011;4379;59.744;18.206;2022-10-16T06:01:03;7.80;;;7.28;;
8683;SDS011;4379;59.744;18.206;2022-10-16T06:03:33;8.40;;;8.00;;
8683;SDS011;4379;59.744;18.206;2022-10-16T06:06:10;8.27;;;7.68;;
8683;SDS011;4379;59.744;18.206;2022-10-16T06:08:40;8.13;;;7.55;;
8683;SDS011;4379;59.744;18.206;2022-10-16T06:11:08;8.43;;;7.90;;
8683;SDS011;4379;59.744;18.206;2022-10-16T06:13:37;8.27;;;7.68;;
8683;SDS011;4379;59.744;18.206;2022-10-16T06:16:08;7.85;;;7.38;;
8683;SDS011;4379;59.744;18.206;2022-10-16T06:18:36;7.93;;;7.43;;
8683;SDS011;4379;59.744;18.206;2022-10-16T06:21:10;7.75;;;7.22;;
8683;SDS011;4379;59.744;18.206;2022-10-16T06:23:43;7.68;;;7.00;;
8683;SDS011;4379;59.744;18.206;2022-10-16T06:26:14;7.38;;;6.97;;
8683;SDS011;4379;59.744;18.206;2022-10-16T06:28:43;7.45;;;6.88;;
8683;SDS011;4379;59.744;18.206;2022-10-16T06:31:11;7.55;;;7.05;;
8683;SDS011;4379;59.744;18.206;2022-10-16T06:33:39;7.63;;;7.18;;
8683;SDS011;4379;59.744;18.206;2022-10-16T06:36:10;7.70;;;7.10;;
8683;SDS011;4379;59.744;18.206;2022-10-16T06:38:40;7.85;;;7.32;;
8683;SDS011;4379;59.744;18.206;2022-10-16T06:41:09;7.57;;;7.15;;
8683;SDS011;4379;59.744;18.206;2022-10-16T06:43:39;7.85;;;7.45;;
8683;SDS011;4379;59.744;18.206;2022-10-16T06:46:06;8.48;;;7.97;;
8683;SDS011;4379;59.744;18.206;2022-10-16T06:48:36;9.10;;;8.32;;
8683;SDS011;4379;59.744;18.206;2022-10-16T06:51:05;9.40;;;8.70;;
8683;SDS011;4379;59.744;18.206;2022-10-16T06:53:34;9.45;;;8.82;;
8683;SDS011;4379;59.744;18.206;2022-10-16T06:56:15;8.80;;;8.20;;
8683;SDS011;4379;59.744;18.206;2022-10-16T06:58:48;9.38;;;8.57;;
8683;SDS011;4379;59.744;18.206;2022-10-16T07:01:17;9.10;;;8.60;;
8683;SDS011;4379;59.744;18.206;2022-10-16T07:03:45;9.13;;;8.52;;
8683;SDS011;4379;59.744;18.206;2022-10-16T07:06:15;9.05;;;8.50;;
8683;SDS011;4379;59.744;18.206;2022-10-16T07:08:45;9.00;;;8.40;;
8683;SDS011;4379;59.744;18.206;2022-10-16T07:11:14;9.25;;;8.45;;
8683;SDS011;4379;59.744;18.206;2022-10-16T07:13:45;9.00;;;8.40;;
8683;SDS011;4379;59.744;18.206;2022-10-16T07:16:20;8.93;;;8.38;;
8683;SDS011;4379;59.744;18.206;2022-10-16T07:18:57;9.18;;;8.30;;
8683;SDS011;4379;59.744;18.206;2022-10-16T07:21:30;9.25;;;8.65;;
8683;SDS011;4379;59.744;18.206;2022-10-16T07:24:03;8.85;;;8.35;;
8683;SDS011;4379;59.744;18.206;2022-10-16T07:26:33;8.45;;;7.90;;
8683;SDS011;4379;59.744;18.206;2022-10-16T07:29:02;8.98;;;8.27;;
8683;SDS011;4379;59.744;18.206;2022-10-16T07:31:30;8.60;;;7.95;;
8683;SDS011;4379;59.744;18.206;2022-10-16T07:34:01;8.85;;;8.05;;
8683;SDS011;4379;59.744;18.206;2022-10-16T07:36:28;9.07;;;8.48;;
8683;SDS011;4379;59.744;18.206;2022-10-16T07:38:55;8.52;;;7.93;;
8683;SDS011;4379;59.744;18.206;2022-10-16T07:41:25;8.00;;;7.50;;
8683;SDS011;4379;59.744;18.206;2022-10-16T07:43:53;8.48;;;7.90;;
8683;SDS011;4379;59.744;18.206;2022-10-16T07:46:22;8.13;;;7.72;;
8683;SDS011;4379;59.744;18.206;2022-10-16T07:48:50;8.55;;;7.75;;
8683;SDS011;4379;59.744;18.206;2022-10-16T07:51:18;8.25;;;7.65;;
8683;SDS011;4379;59.744;18.206;2022-10-16T07:53:48;7.95;;;7.35;;
8683;SDS011;4379;59.744;18.206;2022-10-16T07:56:16;7.78;;;7.25;;
8683;SDS011;4379;59.744;18.206;2022-10-16T07:58:44;9.02;;;8.18;;
8683;SDS011;4379;59.744;18.206;2022-10-16T08:01:13;8.82;;;8.32;;
8683;SDS011;4379;59.744;18.206;2022-10-16T08:03:42;8.52;;;7.97;;
8683;SDS011;4379;59.744;18.206;2022-10-16T08:06:13;9.32;;;8.52;;
8683;SDS011;4379;59.744;18.206;2022-10-16T08:08:41;8.30;;;7.80;;
8683;SDS011;4379;59.744;18.206;2022-10-16T08:11:09;8.85;;;8.30;;
8683;SDS011;4379;59.744;18.206;2022-10-16T08:13:36;9.43;;;8.77;;
8683;SDS011;4379;59.744;18.206;2022-10-16T08:16:04;8.85;;;8.25;;
8683;SDS011;4379;59.744;18.206;2022-10-16T08:18:34;9.20;;;8.40;;
8683;SDS011;4379;59.744;18.206;2022-10-16T08:21:03;8.70;;;8.07;;
8683;SDS011;4379;59.744;18.206;2022-10-16T08:23:32;8.73;;;8.02;;
8683;SDS011;4379;59.744;18.206;2022-10-16T08:26:06;8.65;;;8.05;;
8683;SDS011;4379;59.744;18.206;2022-10-16T08:28:35;7.53;;;7.03;;
8683;SDS011;4379;59.744;18.206;2022-10-16T08:31:09;8.02;;;7.53;;
8683;SDS011;4379;59.744;18.206;2022-10-16T08:33:38;7.47;;;7.07;;
8683;SDS011;4379;59.744;18.206;2022-10-16T08:36:08;7.68;;;7.10;;
8683;SDS011;4379;59.744;18.206;2022-10-16T08:38:37;7.88;;;7.25;;
8683;SDS011;4379;59.744;18.206;2022-10-16T08:44:18;6.25;;;5.80;;
8683;SDS011;4379;59.744;18.206;2022-10-16T08:46:57;5.93;;;5.53;;
8683;SDS011;4379;59.744;18.206;2022-10-16T08:49:36;6.03;;;5.65;;
8683;SDS011;4379;59.744;18.206;2022-10-16T08:52:12;6.28;;;5.70;;
8683;SDS011;4379;59.744;18.206;2022-10-16T08:54:45;6.15;;;5.85;;
8683;SDS011;4379;59.744;18.206;2022-10-16T08:57:21;6.03;;;5.63;;
8683;SDS011;4379;59.744;18.206;2022-10-16T08:59:51;5.50;;;5.20;;
8683;SDS011;4379;59.744;18.206;2022-10-16T09:02:26;5.85;;;5.55;;
8683;SDS011;4379;59.744;18.206;2022-10-16T09:16:22;4.15;;;3.80;;
8683;SDS011;4379;59.744;18.206;2022-10-16T09:21:45;4.00;;;3.72;;
8683;SDS011;4379;59.744;18.206;2022-10-16T09:24:16;3.60;;;3.33;;
8683;SDS011;4379;59.744;18.206;2022-10-16T09:26:46;4.63;;;3.40;;
8683;SDS011;4379;59.744;18.206;2022-10-16T09:29:15;3.40;;;3.20;;
8683;SDS011;4379;59.744;18.206;2022-10-16T09:31:44;3.40;;;3.10;;
8683;SDS011;4379;59.744;18.206;2022-10-16T09:34:17;3.55;;;3.25;;
8683;SDS011;4379;59.744;18.206;2022-10-16T09:36:58;3.10;;;2.90;;
8683;SDS011;4379;59.744;18.206;2022-10-16T09:39:27;4.00;;;3.30;;
8683;SDS011;4379;59.744;18.206;2022-10-16T09:41:55;3.10;;;2.90;;
8683;SDS011;4379;59.744;18.206;2022-10-16T09:44:24;3.35;;;3.05;;
8683;SDS011;4379;59.744;18.206;2022-10-16T09:50:02;3.25;;;3.05;;
8683;SDS011;4379;59.744;18.206;2022-10-16T09:52:33;3.20;;;3.00;;
8683;SDS011;4379;59.744;18.206;2022-10-16T09:55:02;3.38;;;3.08;;
8683;SDS011;4379;59.744;18.206;2022-10-16T09:57:49;3.58;;;2.80;;
8683;SDS011;4379;59.744;18.206;2022-10-16T10:00:21;3.30;;;2.60;;
8683;SDS011;4379;59.744;18.206;2022-10-16T10:02:50;3.97;;;2.53;;
8683;SDS011;4379;59.744;18.206;2022-10-16T10:05:20;3.10;;;2.80;;
8683;SDS011;4379;59.744;18.206;2022-10-16T10:07:54;3.70;;;2.78;;
8683;SDS011;4379;59.744;18.206;2022-10-16T10:10:24;3.42;;;2.40;;
8683;SDS011;4379;59.744;18.206;2022-10-16T10:12:54;2.42;;;2.30;;
8683;SDS011;4379;59.744;18.206;2022-10-16T10:15:22;4.70;;;2.90;;
8683;SDS011;4379;59.744;18.206;2022-10-16T10:17:52;2.58;;;2.35;;
8683;SDS011;4379;59.744;18.206;2022-10-16T10:20:28;2.42;;;2.20;;
8683;SDS011;4379;59.744;18.206;2022-10-16T10:23:13;2.28;;;2.08;;
8683;SDS011;4379;59.744;18.206;2022-10-16T10:26:02;3.08;;;2.70;;
8683;SDS011;4379;59.744;18.206;2022-10-16T10:32:22;3.20;;;2.42;;
8683;SDS011;4379;59.744;18.206;2022-10-16T10:43:20;3.50;;;2.42;;
8683;SDS011;4379;59.744;18.206;2022-10-16T10:45:54;2.75;;;2.50;;
8683;SDS011;4379;59.744;18.206;2022-10-16T10:51:19;2.22;;;2.00;;
8683;SDS011;4379;59.744;18.206;2022-10-16T10:53:53;2.70;;;1.88;;
8683;SDS011;4379;59.744;18.206;2022-10-16T10:59:38;2.58;;;2.25;;
8683;SDS011;4379;59.744;18.206;2022-10-16T11:07:47;2.92;;;1.77;;
8683;SDS011;4379;59.744;18.206;2022-10-16T11:10:23;2.50;;;2.30;;
8683;SDS011;4379;59.744;18.206;2022-10-16T11:13:04;4.05;;;2.20;;
8683;SDS011;4379;59.744;18.206;2022-10-16T11:15:58;2.03;;;1.83;;
8683;SDS011;4379;59.744;18.206;2022-10-16T11:21:39;2.92;;;2.13;;
8683;SDS011;4379;59.744;18.206;2022-10-16T11:24:19;2.65;;;2.20;;
8683;SDS011;4379;59.744;18.206;2022-10-16T11:26:50;4.00;;;2.30;;
8683;SDS011;4379;59.744;18.206;2022-10-16T11:29:23;2.47;;;2.17;;
8683;SDS011;4379;59.744;18.206;2022-10-16T11:31:56;3.28;;;2.30;;
8683;SDS011;4379;59.744;18.206;2022-10-16T11:34:44;4.15;;;2.20;;
8683;SDS011;4379;59.744;18.206;2022-10-16T11:37:19;4.38;;;2.00;;
8683;SDS011;4379;59.744;18.206;2022-10-16T11:39:50;1.90;;;1.80;;
8683;SDS011;4379;59.744;18.206;2022-10-16T11:50:57;3.30;;;2.17;;
8683;SDS011;4379;59.744;18.206;2022-10-16T11:56:20;5.47;;;2.33;;
8683;SDS011;4379;59.744;18.206;2022-10-16T11:58:56;5.43;;;2.40;;
8683;SDS011;4379;59.744;18.206;2022-10-16T12:09:28;3.97;;;2.40;;
8683;SDS011;4379;59.744;18.206;2022-10-16T12:11:58;5.15;;;2.30;;
8683;SDS011;4379;59.744;18.206;2022-10-16T12:17:03;2.90;;;2.50;;
8683;SDS011;4379;59.744;18.206;2022-10-16T12:30:27;2.75;;;2.08;;
8683;SDS011;4379;59.744;18.206;2022-10-16T12:33:51;2.55;;;2.35;;
8683;SDS011;4379;59.744;18.206;2022-10-16T12:35:50;5.07;;;2.05;;
8683;SDS011;4379;59.744;18.206;2022-10-16T12:40:57;3.17;;;2.42;;
8683;SDS011;4379;59.744;18.206;2022-10-16T12:43:41;4.07;;;2.40;;
8683;SDS011;4379;59.744;18.206;2022-10-16T12:48:37;4.78;;;2.38;;
8683;SDS011;4379;59.744;18.206;2022-10-16T13:10:41;3.92;;;2.63;;
8683;SDS011;4379;59.744;18.206;2022-10-16T13:27:07;2.40;;;2.20;;
8683;SDS011;4379;59.744;18.206;2022-10-16T13:29:54;3.38;;;2.72;;
8683;SDS011;4379;59.744;18.206;2022-10-16T13:33:01;2.25;;;2.05;;
8683;SDS011;4379;59.744;18.206;2022-10-16T13:35:35;2.30;;;2.10;;
8683;SDS011;4379;59.744;18.206;2022-10-16T13:38:13;3.22;;;2.20;;
8683;SDS011;4379;59.744;18.206;2022-10-16T13:43:37;2.60;;;2.22;;
8683;SDS011;4379;59.744;18.206;2022-10-16T13:46:15;2.92;;;2.50;;
8683;SDS011;4379;59.744;18.206;2022-10-16T13:48:44;3.33;;;2.88;;
8683;SDS011;4379;59.744;18.206;2022-10-16T13:51:23;3.40;;;2.97;;
8683;SDS011;4379;59.744;18.206;2022-10-16T13:53:51;3.75;;;3.35;;
8683;SDS011;4379;59.744;18.206;2022-10-16T13:56:21;3.85;;;3.42;;
8683;SDS011;4379;59.744;18.206;2022-10-16T13:59:25;7.97;;;3.33;;
8683;SDS011;4379;59.744;18.206;2022-10-16T14:01:53;4.45;;;3.03;;
8683;SDS011;4379;59.744;18.206;2022-10-16T14:04:22;1.98;;;1.63;;
8683;SDS011;4379;59.744;18.206;2022-10-16T14:06:52;2.08;;;1.80;;
8683;SDS011;4379;59.744;18.206;2022-10-16T14:09:24;2.05;;;1.85;;
8683;SDS011;4379;59.744;18.206;2022-10-16T14:14:41;2.20;;;1.40;;
8683;SDS011;4379;59.744;18.206;2022-10-16T14:17:21;1.08;;;1.00;;
8683;SDS011;4379;59.744;18.206;2022-10-16T14:19:57;1.48;;;1.00;;
8683;SDS011;4379;59.744;18.206;2022-10-16T14:25:01;1.00;;;0.90;;
8683;SDS011;4379;59.744;18.206;2022-10-16T14:27:41;1.20;;;0.90;;
8683;SDS011;4379;59.744;18.206;2022-10-16T14:32:58;0.80;;;0.75;;
8683;SDS011;4379;59.744;18.206;2022-10-16T14:38:03;1.38;;;0.88;;
8683;SDS011;4379;59.744;18.206;2022-10-16T14:40:34;0.80;;;0.70;;
8683;SDS011;4379;59.744;18.206;2022-10-16T14:43:04;0.73;;;0.73;;
8683;SDS011;4379;59.744;18.206;2022-10-16T14:45:32;1.48;;;0.98;;
8683;SDS011;4379;59.744;18.206;2022-10-16T14:48:03;1.15;;;0.90;;
8683;SDS011;4379;59.744;18.206;2022-10-16T14:50:45;2.45;;;1.08;;
8683;SDS011;4379;59.744;18.206;2022-10-16T14:53:12;1.42;;;0.90;;
8683;SDS011;4379;59.744;18.206;2022-10-16T14:55:41;0.98;;;0.88;;
8683;SDS011;4379;59.744;18.206;2022-10-16T14:58:21;1.02;;;0.90;;
8683;SDS011;4379;59.744;18.206;2022-10-16T15:00:50;2.22;;;0.90;;
8683;SDS011;4379;59.744;18.206;2022-10-16T15:03:17;2.55;;;1.08;;
8683;SDS011;4379;59.744;18.206;2022-10-16T15:05:44;1.67;;;0.88;;
8683;SDS011;4379;59.744;18.206;2022-10-16T15:08:12;2.10;;;0.90;;
8683;SDS011;4379;59.744;18.206;2022-10-16T15:10:41;2.45;;;1.08;;
8683;SDS011;4379;59.744;18.206;2022-10-16T15:13:13;2.63;;;1.20;;
8683;SDS011;4379;59.744;18.206;2022-10-16T15:15:44;1.97;;;0.87;;
8683;SDS011;4379;59.744;18.206;2022-10-16T15:18:13;3.08;;;1.25;;
8683;SDS011;4379;59.744;18.206;2022-10-16T15:20:50;1.65;;;0.82;;
8683;SDS011;4379;59.744;18.206;2022-10-16T15:23:19;0.82;;;0.77;;
8683;SDS011;4379;59.744;18.206;2022-10-16T15:25:49;1.17;;;1.08;;
8683;SDS011;4379;59.744;18.206;2022-10-16T15:28:19;2.50;;;1.00;;
8683;SDS011;4379;59.744;18.206;2022-10-16T15:30:54;2.33;;;1.40;;
8683;SDS011;4379;59.744;18.206;2022-10-16T15:33:24;5.53;;;1.52;;
8683;SDS011;4379;59.744;18.206;2022-10-16T15:36:05;1.93;;;1.13;;
8683;SDS011;4379;59.744;18.206;2022-10-16T15:38:33;1.87;;;1.30;;
8683;SDS011;4379;59.744;18.206;2022-10-16T15:41:00;2.20;;;1.53;;
8683;SDS011;4379;59.744;18.206;2022-10-16T15:43:30;2.17;;;1.50;;
8683;SDS011;4379;59.744;18.206;2022-10-16T15:46:05;1.50;;;1.40;;
8683;SDS011;4379;59.744;18.206;2022-10-16T15:48:35;3.27;;;1.43;;
8683;SDS011;4379;59.744;18.206;2022-10-16T15:51:05;2.60;;;1.33;;
8683;SDS011;4379;59.744;18.206;2022-10-16T15:53:34;2.10;;;1.30;;
8683;SDS011;4379;59.744;18.206;2022-10-16T15:56:02;1.63;;;1.20;;
8683;SDS011;4379;59.744;18.206;2022-10-16T15:58:31;2.20;;;1.30;;
8683;SDS011;4379;59.744;18.206;2022-10-16T16:00:58;1.30;;;1.20;;
8683;SDS011;4379;59.744;18.206;2022-10-16T16:03:30;2.70;;;1.57;;
8683;SDS011;4379;59.744;18.206;2022-10-16T16:05:58;1.30;;;1.20;;
8683;SDS011;4379;59.744;18.206;2022-10-16T16:08:29;2.00;;;1.27;;
8683;SDS011;4379;59.744;18.206;2022-10-16T16:11:00;1.50;;;1.40;;
8683;SDS011;4379;59.744;18.206;2022-10-16T16:13:41;2.00;;;1.10;;
8683;SDS011;4379;59.744;18.206;2022-10-16T16:16:09;1.20;;;0.97;;
8683;SDS011;4379;59.744;18.206;2022-10-16T16:18:39;4.40;;;0.87;;
8683;SDS011;4379;59.744;18.206;2022-10-16T16:21:06;2.10;;;1.00;;
8683;SDS011;4379;59.744;18.206;2022-10-16T16:23:34;2.33;;;1.30;;
8683;SDS011;4379;59.744;18.206;2022-10-16T16:28:50;2.03;;;0.70;;
8683;SDS011;4379;59.744;18.206;2022-10-16T16:31:17;2.13;;;1.30;;
8683;SDS011;4379;59.744;18.206;2022-10-16T16:33:45;1.27;;;1.00;;
8683;SDS011;4379;59.744;18.206;2022-10-16T16:36:12;3.13;;;1.10;;
8683;SDS011;4379;59.744;18.206;2022-10-16T16:38:41;2.17;;;1.30;;
8683;SDS011;4379;59.744;18.206;2022-10-16T16:43:43;2.00;;;1.00;;
8683;SDS011;4379;59.744;18.206;2022-10-16T16:46:11;1.60;;;1.10;;
8683;SDS011;4379;59.744;18.206;2022-10-16T16:48:38;1.60;;;1.13;;
8683;SDS011;4379;59.744;18.206;2022-10-16T16:51:07;1.97;;;1.27;;
8683;SDS011;4379;59.744;18.206;2022-10-16T16:53:43;3.43;;;1.30;;
8683;SDS011;4379;59.744;18.206;2022-10-16T16:56:11;1.47;;;1.20;;
8683;SDS011;4379;59.744;18.206;2022-10-16T16:58:40;2.43;;;1.10;;
8683;SDS011;4379;59.744;18.206;2022-10-16T17:01:09;2.30;;;1.13;;
8683;SDS011;4379;59.744;18.206;2022-10-16T17:03:47;4.80;;;1.20;;
8683;SDS011;4379;59.744;18.206;2022-10-16T17:06:17;1.27;;;1.17;;
8683;SDS011;4379;59.744;18.206;2022-10-16T17:08:47;3.33;;;1.00;;
8683;SDS011;4379;59.744;18.206;2022-10-16T17:11:19;1.57;;;0.90;;
8683;SDS011;4379;59.744;18.206;2022-10-16T17:13:49;0.87;;;0.87;;
8683;SDS011;4379;59.744;18.206;2022-10-16T17:16:33;1.67;;;1.00;;
8683;SDS011;4379;59.744;18.206;2022-10-16T17:19:03;2.00;;;0.80;;
8683;SDS011;4379;59.744;18.206;2022-10-16T17:21:31;1.83;;;0.97;;
8683;SDS011;4379;59.744;18.206;2022-10-16T17:23:59;3.90;;;1.20;;
8683;SDS011;4379;59.744;18.206;2022-10-16T17:26:27;2.20;;;1.17;;
8683;SDS011;4379;59.744;18.206;2022-10-16T17:28:56;1.20;;;0.90;;
8683;SDS011;4379;59.744;18.206;2022-10-16T17:31:32;1.77;;;0.93;;
8683;SDS011;4379;59.744;18.206;2022-10-16T17:34:03;1.23;;;1.10;;
8683;SDS011;4379;59.744;18.206;2022-10-16T17:36:33;1.80;;;1.10;;
8683;SDS011;4379;59.744;18.206;2022-10-16T17:39:05;1.30;;;0.80;;
8683;SDS011;4379;59.744;18.206;2022-10-16T17:41:34;1.57;;;0.87;;
8683;SDS011;4379;59.744;18.206;2022-10-16T17:44:02;2.00;;;0.80;;
8683;SDS011;4379;59.744;18.206;2022-10-16T17:46:30;1.50;;;1.00;;
8683;SDS011;4379;59.744;18.206;2022-10-16T17:49:05;0.93;;;0.70;;
8683;SDS011;4379;59.744;18.206;2022-10-16T17:51:32;1.43;;;0.87;;